createdAt,value
2019-02-20T00:00:10.021Z,10.97
2019-02-20T00:03:01.214Z,11.73
2019-02-20T00:05:51.300Z,12.30
2019-02-20T00:08:41.469Z,11.60
2019-02-20T00:11:31.154Z,12.60
2019-02-20T00:14:21.111Z,12.00
2019-02-20T00:17:11.173Z,12.00
2019-02-20T00:20:01.283Z,12.77
2019-02-20T00:22:52.715Z,11.97
2019-02-20T00:25:42.727Z,11.77
2019-02-20T00:28:32.702Z,11.73
2019-02-20T00:31:22.176Z,12.70
2019-02-20T00:34:11.811Z,11.90
2019-02-20T00:37:01.632Z,12.10
2019-02-20T00:39:51.443Z,13.80
2019-02-20T00:42:41.737Z,13.03
2019-02-20T00:45:41.148Z,13.20
2019-02-20T00:48:39.672Z,13.50
2019-02-20T00:51:58.225Z,12.87
2019-02-20T00:54:48.119Z,12.93
2019-02-20T00:57:38.498Z,12.80
2019-02-20T01:00:28.461Z,13.03
2019-02-20T01:03:18.238Z,12.10
2019-02-20T01:06:08.041Z,12.80
2019-02-20T01:08:58.125Z,12.43
2019-02-20T01:11:48.112Z,14.70
2019-02-20T01:14:37.981Z,12.70
2019-02-20T01:17:28.133Z,13.80
2019-02-20T01:20:18.166Z,13.97
2019-02-20T01:23:08.251Z,13.03
2019-02-20T01:25:58.712Z,12.83
2019-02-20T01:28:48.910Z,12.93
2019-02-20T01:31:38.668Z,12.97
2019-02-20T01:34:28.538Z,13.83
2019-02-20T01:37:18.619Z,12.60
2019-02-20T01:40:09.134Z,12.80
2019-02-20T01:42:58.939Z,13.17
2019-02-20T01:45:49.062Z,12.10
2019-02-20T01:48:38.835Z,12.87
2019-02-20T01:51:28.615Z,12.37
2019-02-20T01:54:18.574Z,14.17
2019-02-20T01:57:08.710Z,13.53
2019-02-20T01:59:59.966Z,12.20
2019-02-20T02:02:50.172Z,11.00
2019-02-20T02:05:40.490Z,12.80
2019-02-20T02:08:30.787Z,11.90
2019-02-20T02:11:21.100Z,12.20
2019-02-20T02:14:10.941Z,12.07
2019-02-20T02:17:02.090Z,12.80
2019-02-20T02:19:53.858Z,13.73
2019-02-20T02:22:43.489Z,12.10
2019-02-20T02:25:33.134Z,11.40
2019-02-20T02:28:23.421Z,11.43
2019-02-20T02:31:13.438Z,12.20
2019-02-20T02:34:03.315Z,11.97
2019-02-20T02:36:53.525Z,12.20
2019-02-20T02:39:43.975Z,11.40
2019-02-20T02:42:34.017Z,11.00
2019-02-20T02:45:23.757Z,13.73
2019-02-20T02:48:13.679Z,11.00
2019-02-20T02:51:03.453Z,11.13
2019-02-20T02:53:53.293Z,11.53
2019-02-20T02:56:43.145Z,11.83
2019-02-20T02:59:33.772Z,11.40
2019-02-20T03:02:23.606Z,13.37
2019-02-20T03:05:13.474Z,11.27
2019-02-20T03:08:03.112Z,10.80
2019-02-20T03:10:53.186Z,11.63
2019-02-20T03:13:43.202Z,10.93
2019-02-20T03:16:32.516Z,11.07
2019-02-20T03:19:22.363Z,9.20
2019-02-20T03:22:12.566Z,11.60
2019-02-20T03:25:02.179Z,12.63
2019-02-20T03:27:51.810Z,11.97
2019-02-20T03:30:41.881Z,11.67
2019-02-20T03:33:31.653Z,11.83
2019-02-20T03:36:21.493Z,13.73
2019-02-20T03:39:10.974Z,11.93
2019-02-20T03:42:01.152Z,12.87
2019-02-20T03:44:50.888Z,11.60
2019-02-20T03:47:40.808Z,12.33
2019-02-20T03:50:30.633Z,11.23
2019-02-20T03:53:20.301Z,12.43
2019-02-20T03:56:10.809Z,11.97
2019-02-20T03:59:00.892Z,12.93
2019-02-20T04:01:50.642Z,14.17
2019-02-20T04:04:40.555Z,12.50
2019-02-20T04:07:30.751Z,12.00
2019-02-20T04:10:20.872Z,12.47
2019-02-20T04:13:10.454Z,13.60
2019-02-20T04:16:00.433Z,12.90
2019-02-20T04:18:50.491Z,13.43
2019-02-20T04:21:40.603Z,11.93
2019-02-20T04:24:30.207Z,13.53
2019-02-20T04:27:19.713Z,11.90
2019-02-20T04:30:10.465Z,12.40
2019-02-20T04:33:00.428Z,13.40
2019-02-20T04:35:50.179Z,13.03
2019-02-20T04:38:39.930Z,13.07
2019-02-20T04:41:30.276Z,13.73
2019-02-20T04:44:20.555Z,12.60
2019-02-20T04:47:10.231Z,11.10
2019-02-20T04:50:00.364Z,11.20
2019-02-20T04:52:50.572Z,12.37
2019-02-20T04:55:40.285Z,11.13
2019-02-20T04:58:30.107Z,14.20
2019-02-20T05:01:19.834Z,11.83
2019-02-20T05:04:09.956Z,11.27
2019-02-20T05:07:00.015Z,12.43
2019-02-20T05:09:50.147Z,11.90
2019-02-20T05:12:40.199Z,12.10
2019-02-20T05:15:30.034Z,12.20
2019-02-20T05:18:20.261Z,11.33
2019-02-20T05:21:09.985Z,11.00
2019-02-20T05:23:59.812Z,11.83
2019-02-20T05:26:49.771Z,11.93
2019-02-20T05:29:39.603Z,16.83
2019-02-20T05:32:29.447Z,12.30
2019-02-20T05:35:19.572Z,10.87
2019-02-20T05:38:11.120Z,11.80
2019-02-20T05:41:00.854Z,11.50
2019-02-20T05:43:51.013Z,11.17
2019-02-20T05:46:40.719Z,11.17
2019-02-20T05:49:30.410Z,10.87
2019-02-20T05:52:20.434Z,13.10
2019-02-20T05:55:10.485Z,17.43
2019-02-20T05:58:00.387Z,11.50
2019-02-20T06:00:50.279Z,10.73
2019-02-20T06:03:42.197Z,10.80
2019-02-20T06:06:32.740Z,13.40
2019-02-20T06:09:22.333Z,15.33
2019-02-20T06:12:12.410Z,10.43
2019-02-20T06:15:02.389Z,10.73
2019-02-20T06:17:53.414Z,10.97
2019-02-20T06:20:43.596Z,12.40
2019-02-20T06:23:33.277Z,10.87
2019-02-20T06:26:22.762Z,17.20
2019-02-20T06:29:12.913Z,10.40
2019-02-20T06:32:02.711Z,10.83
2019-02-20T06:34:52.570Z,11.50
2019-02-20T06:37:42.530Z,9.80
2019-02-20T06:40:32.537Z,10.20
2019-02-20T06:43:22.222Z,15.60
2019-02-20T06:46:13.400Z,10.50
2019-02-20T06:49:03.498Z,11.13
2019-02-20T06:51:53.376Z,11.50
2019-02-20T06:54:43.341Z,10.83
2019-02-20T06:57:33.116Z,11.73
2019-02-20T07:00:23.608Z,11.97
2019-02-20T07:03:13.205Z,10.47
2019-02-20T07:06:38.801Z,9.80
2019-02-20T07:10:41.941Z,14.03
2019-02-20T07:14:50.623Z,10.53
2019-02-20T07:18:45.019Z,11.77
2019-02-20T07:22:37.842Z,11.40
2019-02-20T07:25:48.250Z,11.97
2019-02-20T07:29:26.492Z,10.93
2019-02-20T07:32:18.181Z,10.60
2019-02-20T07:35:10.673Z,12.23
2019-02-20T07:38:00.691Z,11.03
2019-02-20T07:40:51.548Z,11.73
2019-02-20T07:43:41.634Z,11.73
2019-02-20T07:46:31.025Z,10.33
2019-02-20T07:49:20.415Z,9.60
2019-02-20T07:52:10.355Z,9.90
2019-02-20T07:55:01.371Z,9.77
2019-02-20T07:57:51.564Z,10.03
2019-02-20T08:00:41.445Z,10.90
2019-02-20T08:03:31.502Z,10.73
2019-02-20T08:06:21.237Z,10.10
2019-02-20T08:09:11.120Z,10.43
2019-02-20T08:12:01.697Z,11.00
2019-02-20T08:14:51.319Z,9.43
2019-02-20T08:17:41.058Z,8.83
2019-02-20T08:20:31.806Z,10.00
2019-02-20T08:23:21.720Z,10.87
2019-02-20T08:26:12.953Z,11.80
2019-02-20T08:29:02.756Z,8.80
2019-02-20T08:31:53.866Z,10.10
2019-02-20T08:34:43.764Z,10.07
2019-02-20T08:37:34.009Z,10.27
2019-02-20T08:40:24.050Z,11.20
2019-02-20T08:43:13.943Z,10.27
2019-02-20T08:46:04.267Z,9.60
2019-02-20T08:48:54.010Z,9.90
2019-02-20T08:51:43.859Z,10.80
2019-02-20T08:54:33.660Z,9.00
2019-02-20T08:57:23.175Z,10.07
2019-02-20T09:00:13.808Z,9.70
2019-02-20T09:03:04.004Z,9.10
2019-02-20T09:05:53.725Z,9.90
2019-02-20T09:08:44.368Z,9.37
2019-02-20T09:11:34.469Z,9.87
2019-02-20T09:14:24.447Z,9.07
2019-02-20T09:17:14.158Z,9.30
2019-02-20T09:20:04.708Z,9.70
2019-02-20T09:22:55.014Z,8.30
2019-02-20T09:25:44.690Z,10.07
2019-02-20T09:28:34.910Z,8.80
2019-02-20T09:31:24.367Z,10.10
2019-02-20T09:34:13.886Z,8.43
2019-02-20T09:37:03.844Z,10.07
2019-02-20T09:39:53.939Z,9.20
2019-02-20T09:42:46.396Z,10.23
2019-02-20T09:45:41.972Z,9.30
2019-02-20T09:48:28.880Z,8.03
2019-02-20T09:51:18.599Z,8.13
2019-02-20T09:54:08.666Z,9.60
2019-02-20T09:56:58.532Z,8.33
2019-02-20T09:59:48.747Z,8.70
2019-02-20T10:02:38.699Z,8.57
2019-02-20T10:05:28.459Z,8.30
2019-02-20T10:08:18.452Z,9.37
2019-02-20T10:11:08.621Z,8.70
2019-02-20T10:13:58.919Z,8.93
2019-02-20T10:16:49.000Z,9.50
2019-02-20T10:19:39.147Z,9.17
2019-02-20T10:22:28.737Z,7.70
2019-02-20T10:25:18.351Z,8.73
2019-02-20T10:28:08.715Z,9.47
2019-02-20T10:30:58.691Z,9.27
2019-02-20T10:33:48.741Z,8.13
2019-02-20T10:36:38.442Z,9.40
2019-02-20T10:39:28.561Z,9.70
2019-02-20T10:42:18.739Z,8.73
2019-02-20T10:45:09.463Z,9.40
2019-02-20T10:47:59.521Z,9.47
2019-02-20T10:50:49.068Z,8.87
2019-02-20T10:53:38.878Z,8.73
2019-02-20T10:56:29.228Z,9.60
2019-02-20T10:59:18.901Z,9.07
2019-02-20T11:02:08.803Z,8.53
2019-02-20T11:04:58.830Z,9.23
2019-02-20T11:07:48.827Z,9.53
2019-02-20T11:10:39.122Z,9.40
2019-02-20T11:13:29.170Z,8.63
2019-02-20T11:16:18.654Z,9.50
2019-02-20T11:19:08.724Z,10.87
2019-02-20T11:21:58.909Z,7.80
2019-02-20T11:24:48.767Z,9.10
2019-02-20T11:27:39.527Z,8.03
2019-02-20T11:30:29.542Z,8.10
2019-02-20T11:33:19.299Z,8.40
2019-02-20T11:36:09.387Z,7.63
2019-02-20T11:38:59.506Z,10.60
2019-02-20T11:41:49.669Z,8.20
2019-02-20T11:44:39.447Z,7.67
2019-02-20T11:47:29.282Z,6.97
2019-02-20T11:50:19.592Z,6.43
2019-02-20T11:53:09.809Z,8.00
2019-02-20T11:55:59.621Z,5.50
2019-02-20T11:58:49.366Z,7.63
2019-02-20T12:01:38.658Z,6.90
2019-02-20T12:04:31.401Z,5.70
2019-02-20T12:07:21.067Z,6.93
2019-02-20T12:10:12.661Z,5.17
2019-02-20T12:13:02.932Z,5.37
2019-02-20T12:15:52.867Z,4.93
2019-02-20T12:18:42.559Z,5.20
2019-02-20T12:21:32.544Z,5.17
2019-02-20T12:24:22.499Z,5.50
2019-02-20T12:27:12.844Z,7.00
2019-02-20T12:30:02.356Z,5.67
2019-02-20T12:32:53.873Z,6.30
2019-02-20T12:35:44.242Z,5.37
2019-02-20T12:38:34.370Z,5.43
2019-02-20T12:41:24.441Z,4.70
2019-02-20T12:44:14.536Z,5.37
2019-02-20T12:47:04.604Z,4.70
2019-02-20T12:49:54.871Z,5.77
2019-02-20T12:52:45.199Z,5.40
2019-02-20T12:55:35.514Z,5.93
2019-02-20T12:58:25.602Z,5.07
2019-02-20T13:01:15.615Z,7.90
2019-02-20T13:04:05.482Z,4.83
2019-02-20T13:06:59.362Z,5.37
2019-02-20T13:09:47.580Z,4.30
2019-02-20T13:12:37.805Z,3.77
2019-02-20T13:15:27.584Z,4.47
2019-02-20T13:18:17.553Z,4.30
2019-02-20T13:21:08.100Z,5.50
2019-02-20T13:23:57.912Z,5.13
2019-02-20T13:26:52.809Z,4.10
2019-02-20T13:29:39.170Z,4.10
2019-02-20T13:32:29.362Z,3.50
2019-02-20T13:35:19.446Z,4.77
2019-02-20T13:38:10.565Z,4.47
2019-02-20T13:41:00.438Z,4.20
2019-02-20T13:43:51.252Z,4.10
2019-02-20T13:46:41.441Z,3.10
2019-02-20T13:49:31.587Z,4.90
2019-02-20T13:52:21.290Z,5.60
2019-02-20T13:55:11.448Z,4.13
2019-02-20T13:58:01.240Z,4.70
2019-02-20T14:00:51.392Z,4.27
2019-02-20T14:03:42.577Z,5.43
2019-02-20T14:06:32.482Z,4.43
2019-02-20T14:09:22.349Z,4.90
2019-02-20T14:12:12.612Z,4.73
2019-02-20T14:15:02.853Z,4.97
2019-02-20T14:17:52.907Z,10.80
2019-02-20T14:20:43.199Z,4.53
2019-02-20T14:23:33.229Z,5.13
2019-02-20T14:26:23.109Z,4.67
2019-02-20T14:29:13.263Z,4.83
2019-02-20T14:32:03.102Z,5.10
2019-02-20T14:34:52.897Z,5.50
2019-02-20T14:37:44.139Z,5.77
2019-02-20T14:40:34.106Z,4.63
2019-02-20T14:43:24.500Z,4.43
2019-02-20T14:46:14.783Z,4.57
2019-02-20T14:49:04.701Z,5.03
2019-02-20T14:51:55.728Z,5.23
2019-02-20T14:54:45.523Z,5.53
2019-02-20T14:57:35.356Z,5.50
2019-02-20T15:00:25.457Z,3.80
2019-02-20T15:03:15.142Z,4.90
2019-02-20T15:06:05.474Z,4.63
2019-02-20T15:08:55.703Z,5.07
2019-02-20T15:11:45.490Z,7.93
2019-02-20T15:14:35.400Z,5.13
2019-02-20T15:17:25.123Z,4.63
2019-02-20T15:20:14.836Z,5.07
2019-02-20T15:23:04.915Z,5.00
2019-02-20T15:25:54.711Z,5.27
2019-02-20T15:28:44.400Z,6.37
2019-02-20T15:31:34.580Z,5.30
2019-02-20T15:34:25.432Z,6.10
2019-02-20T15:37:21.071Z,6.57
2019-02-20T15:40:12.822Z,6.40
2019-02-20T15:43:10.059Z,5.70
2019-02-20T15:46:12.005Z,6.40
2019-02-20T15:49:08.068Z,5.80
2019-02-20T15:51:59.425Z,5.80
2019-02-20T15:54:49.867Z,5.50
2019-02-20T15:57:40.162Z,6.27
2019-02-20T16:00:30.404Z,8.57
2019-02-20T16:03:21.060Z,6.70
2019-02-20T16:06:11.764Z,6.10
2019-02-20T16:09:01.995Z,10.50
2019-02-20T16:11:53.498Z,10.30
2019-02-20T16:14:43.345Z,9.00
2019-02-20T16:17:33.283Z,7.90
2019-02-20T16:20:23.400Z,6.40
2019-02-20T16:23:13.333Z,7.07
2019-02-20T16:26:03.057Z,6.40
2019-02-20T16:28:53.097Z,6.60
2019-02-20T16:31:43.376Z,6.93
2019-02-20T16:34:32.976Z,6.80
2019-02-20T16:37:22.699Z,6.83
2019-02-20T16:40:13.525Z,6.10
2019-02-20T16:43:03.906Z,5.67
2019-02-20T16:45:54.141Z,5.60
2019-02-20T16:48:44.290Z,6.07
2019-02-20T16:51:34.308Z,6.80
2019-02-20T16:54:24.487Z,7.07
2019-02-20T16:57:14.240Z,7.20
2019-02-20T17:00:05.745Z,6.37
2019-02-20T17:02:56.877Z,12.50
2019-02-20T17:05:48.501Z,5.50
2019-02-20T17:08:38.841Z,5.10
2019-02-20T17:11:28.393Z,5.20
2019-02-20T17:14:17.970Z,5.50
2019-02-20T17:17:08.349Z,4.90
2019-02-20T17:19:58.168Z,6.20
2019-02-20T17:22:48.050Z,4.93
2019-02-20T17:25:38.582Z,5.23
2019-02-20T17:28:28.524Z,4.90
2019-02-20T17:31:18.406Z,4.90
2019-02-20T17:34:08.263Z,4.70
2019-02-20T17:36:58.520Z,5.47
2019-02-20T17:39:48.660Z,5.50
2019-02-20T17:42:38.317Z,5.37
2019-02-20T17:45:28.415Z,5.50
2019-02-20T17:48:19.204Z,6.07
2019-02-20T17:51:09.675Z,6.00
2019-02-20T17:53:59.851Z,5.80
2019-02-20T17:56:49.961Z,5.90
2019-02-20T17:59:38.968Z,6.23
2019-02-20T18:02:28.762Z,5.70
2019-02-20T18:05:18.690Z,5.90
2019-02-20T18:08:08.568Z,5.23
2019-02-20T18:10:58.763Z,6.13
2019-02-20T18:13:47.914Z,6.67
2019-02-20T18:16:37.812Z,6.00
2019-02-20T18:19:28.760Z,6.13
2019-02-20T18:22:19.506Z,7.40
2019-02-20T18:25:10.012Z,7.03
2019-02-20T18:27:59.712Z,12.33
2019-02-20T18:30:50.063Z,7.10
2019-02-20T18:33:40.980Z,7.70
2019-02-20T18:36:31.237Z,8.00
2019-02-20T18:39:21.598Z,9.13
2019-02-20T18:42:11.391Z,7.67
2019-02-20T18:45:01.091Z,8.30
2019-02-20T18:47:50.804Z,9.70
2019-02-20T18:50:40.583Z,7.83
2019-02-20T18:53:30.989Z,10.70
2019-02-20T18:56:21.954Z,8.60
2019-02-20T18:59:11.736Z,10.40
2019-02-20T19:02:02.140Z,8.20
2019-02-20T19:04:52.382Z,8.40
2019-02-20T19:07:42.755Z,10.00
2019-02-20T19:10:37.023Z,8.23
2019-02-20T19:14:01.904Z,7.80
2019-02-20T19:18:17.120Z,10.17
2019-02-20T19:21:39.941Z,9.47
2019-02-20T19:25:47.076Z,9.10
2019-02-20T19:29:13.467Z,10.03
2019-02-20T19:32:47.087Z,10.57
2019-02-20T19:36:40.917Z,10.37
2019-02-20T19:39:59.145Z,11.80
2019-02-20T19:43:27.987Z,9.50
2019-02-20T19:47:06.929Z,9.73
2019-02-20T19:50:14.552Z,19.00
2019-02-20T19:53:29.766Z,15.30
2019-02-20T19:57:22.131Z,10.97
2019-02-20T20:01:01.386Z,10.80
2019-02-20T20:05:09.874Z,11.67
2019-02-20T20:09:18.234Z,11.20
2019-02-20T20:12:57.320Z,9.90
2019-02-20T20:16:59.920Z,10.67
2019-02-20T20:20:21.737Z,10.77
2019-02-20T20:23:41.553Z,11.00
2019-02-20T20:27:56.491Z,11.20
2019-02-20T20:31:23.314Z,7.87
2019-02-20T20:35:27.511Z,9.60
2019-02-20T20:38:59.440Z,8.73
2019-02-20T20:42:25.325Z,10.27
2019-02-20T20:45:49.974Z,10.23
2019-02-20T20:49:16.109Z,10.17
2019-02-20T20:53:05.436Z,8.93
2019-02-20T20:56:31.476Z,11.20
2019-02-20T21:00:08.200Z,9.90
2019-02-20T21:03:05.786Z,9.30
2019-02-20T21:06:41.937Z,11.40
2019-02-20T21:09:47.830Z,9.03
2019-02-20T21:13:27.231Z,9.73
2019-02-20T21:17:08.782Z,10.10
2019-02-20T21:20:36.622Z,9.60
2019-02-20T21:24:31.575Z,10.33
2019-02-20T21:28:14.119Z,9.37
2019-02-20T21:31:25.723Z,11.53
2019-02-20T21:34:52.357Z,10.30
2019-02-20T21:38:56.102Z,10.20
2019-02-20T21:42:30.618Z,10.70
2019-02-20T21:45:41.171Z,10.40
2019-02-20T21:49:11.319Z,11.00
2019-02-20T21:52:43.158Z,10.93
2019-02-20T21:56:41.530Z,11.60
2019-02-20T22:00:27.774Z,11.83
2019-02-20T22:03:55.819Z,10.87
2019-02-20T22:07:30.608Z,10.73
2019-02-20T22:10:57.577Z,11.53
2019-02-20T22:14:29.542Z,10.40
2019-02-20T22:17:55.092Z,11.70
2019-02-20T22:21:40.931Z,10.20
2019-02-20T22:25:11.629Z,11.17
2019-02-20T22:28:45.276Z,10.80
2019-02-20T22:32:07.914Z,11.07
2019-02-20T22:35:19.255Z,11.17
2019-02-20T22:39:11.836Z,12.10
2019-02-20T22:42:45.130Z,9.43
2019-02-20T22:45:54.973Z,10.70
2019-02-20T22:49:14.137Z,11.17
2019-02-20T22:52:26.962Z,11.00
2019-02-20T22:55:57.080Z,11.83
2019-02-20T22:59:46.655Z,11.27
2019-02-20T23:03:03.986Z,11.80
2019-02-20T23:06:45.362Z,11.43
2019-02-20T23:10:24.313Z,9.90
2019-02-20T23:14:05.584Z,9.90
2019-02-20T23:16:55.779Z,11.17
2019-02-20T23:19:45.409Z,10.53
2019-02-20T23:22:35.513Z,11.37
2019-02-20T23:25:25.176Z,11.33
2019-02-20T23:28:14.893Z,10.40
2019-02-20T23:31:04.866Z,11.07
2019-02-20T23:33:54.760Z,11.27
2019-02-20T23:36:44.300Z,13.67
2019-02-20T23:39:34.692Z,11.40
2019-02-20T23:42:24.745Z,12.00
2019-02-20T23:45:14.507Z,13.00
2019-02-20T23:48:04.952Z,11.97
2019-02-20T23:50:55.882Z,10.47
2019-02-20T23:53:45.816Z,11.23
2019-02-20T23:56:35.590Z,10.37
2019-02-20T23:59:25.359Z,10.77
